createdAt,value
2019-01-24T00:00:36.056Z,-3.82
2019-01-24T00:01:36.042Z,-3.91
2019-01-24T00:02:36.028Z,-3.89
2019-01-24T00:03:36.045Z,-3.89
2019-01-24T00:04:36.018Z,-3.82
2019-01-24T00:05:36.019Z,-3.89
2019-01-24T00:06:35.984Z,-3.85
2019-01-24T00:07:35.978Z,-3.88
2019-01-24T00:08:35.980Z,-3.89
2019-01-24T00:09:35.962Z,-3.82
2019-01-24T00:10:35.945Z,-3.83
2019-01-24T00:11:35.946Z,-3.77
2019-01-24T00:12:35.924Z,-3.77
2019-01-24T00:13:35.914Z,-3.72
2019-01-24T00:14:35.900Z,-3.75
2019-01-24T00:15:35.930Z,-3.72
2019-01-24T00:16:35.897Z,-3.77
2019-01-24T00:17:35.869Z,-3.69
2019-01-24T00:18:35.859Z,-3.82
2019-01-24T00:19:35.855Z,-3.74
2019-01-24T00:20:35.842Z,-3.72
2019-01-24T00:21:35.836Z,-3.61
2019-01-24T00:22:35.817Z,-3.77
2019-01-24T00:23:35.811Z,-3.67
2019-01-24T00:24:35.794Z,-3.72
2019-01-24T00:25:35.780Z,-3.74
2019-01-24T00:26:35.781Z,-3.77
2019-01-24T00:27:35.759Z,-3.77
2019-01-24T00:28:35.771Z,-3.75
2019-01-24T00:29:35.738Z,-3.67
2019-01-24T00:30:35.733Z,-3.74
2019-01-24T00:31:35.744Z,-3.74
2019-01-24T00:32:35.740Z,-3.75
2019-01-24T00:33:35.708Z,-3.75
2019-01-24T00:34:35.699Z,-3.85
2019-01-24T00:35:35.708Z,-3.88
2019-01-24T00:36:35.660Z,-3.89
2019-01-24T00:37:35.657Z,-3.98
2019-01-24T00:38:35.649Z,-3.96
2019-01-24T00:40:55.393Z,-3.98
2019-01-24T00:41:55.371Z,-3.92
2019-01-24T00:42:55.371Z,-3.95
2019-01-24T00:43:55.385Z,-3.82
2019-01-24T00:44:55.343Z,-3.82
2019-01-24T00:45:55.331Z,-3.89
2019-01-24T00:46:55.384Z,-3.82
2019-01-24T00:47:55.311Z,-3.82
2019-01-24T00:48:55.301Z,-3.83
2019-01-24T00:49:55.289Z,-3.78
2019-01-24T00:50:55.293Z,-3.74
2019-01-24T00:51:55.268Z,-3.70
2019-01-24T00:52:55.281Z,-3.72
2019-01-24T00:53:55.259Z,-3.75
2019-01-24T00:54:55.235Z,-3.77
2019-01-24T00:55:55.250Z,-3.77
2019-01-24T00:56:55.214Z,-3.70
2019-01-24T00:57:55.203Z,-3.75
2019-01-24T00:58:55.209Z,-3.72
2019-01-24T00:59:55.180Z,-3.72
2019-01-24T01:00:55.170Z,-3.82
2019-01-24T01:01:55.164Z,-3.74
2019-01-24T01:02:55.186Z,-3.66
2019-01-24T01:03:55.138Z,-3.80
2019-01-24T01:04:55.155Z,-3.85
2019-01-24T01:05:55.120Z,-3.83
2019-01-24T01:06:55.121Z,-3.86
2019-01-24T01:07:55.107Z,-3.85
2019-01-24T01:08:55.113Z,-3.91
2019-01-24T01:09:55.074Z,-3.85
2019-01-24T01:10:55.076Z,-3.85
2019-01-24T01:11:55.055Z,-3.91
2019-01-24T01:12:55.041Z,-3.78
2019-01-24T01:13:55.037Z,-3.78
2019-01-24T01:14:55.021Z,-3.74
2019-01-24T01:15:55.038Z,-3.77
2019-01-24T01:16:55.021Z,-3.77
2019-01-24T01:17:54.986Z,-3.66
2019-01-24T01:18:54.986Z,-3.56
2019-01-24T01:19:54.969Z,-3.59
2019-01-24T01:20:54.958Z,-3.63
2019-01-24T01:21:54.947Z,-3.56
2019-01-24T01:22:54.972Z,-3.59
2019-01-24T01:23:54.926Z,-3.51
2019-01-24T01:24:54.913Z,-3.58
2019-01-24T01:25:54.905Z,-3.56
2019-01-24T01:26:54.895Z,-3.64
2019-01-24T01:27:54.902Z,-3.61
2019-01-24T01:28:54.869Z,-3.59
2019-01-24T01:29:54.855Z,-3.58
2019-01-24T01:30:54.893Z,-3.59
2019-01-24T01:31:54.845Z,-3.67
2019-01-24T01:32:54.828Z,-3.75
2019-01-24T01:33:54.832Z,-3.80
2019-01-24T01:34:54.813Z,-3.72
2019-01-24T01:35:54.796Z,-3.69
2019-01-24T01:36:54.807Z,-3.70
2019-01-24T01:37:54.774Z,-3.63
2019-01-24T01:38:54.763Z,-3.59
2019-01-24T01:39:54.801Z,-3.61
2019-01-24T01:40:54.742Z,-3.59
2019-01-24T01:41:54.726Z,-3.67
2019-01-24T01:42:54.718Z,-3.77
2019-01-24T01:43:54.705Z,-3.64
2019-01-24T01:44:54.720Z,-3.63
2019-01-24T01:45:54.697Z,-3.59
2019-01-24T01:46:54.673Z,-3.67
2019-01-24T01:47:54.666Z,-3.69
2019-01-24T01:48:54.652Z,-3.66
2019-01-24T01:49:54.641Z,-3.66
2019-01-24T01:50:54.666Z,-3.61
2019-01-24T01:51:54.623Z,-3.55
2019-01-24T01:52:54.612Z,-3.56
2019-01-24T01:53:54.597Z,-3.61
2019-01-24T01:54:54.588Z,-3.56
2019-01-24T01:55:54.582Z,-3.59
2019-01-24T01:56:54.601Z,-3.59
2019-01-24T01:57:54.557Z,-3.63
2019-01-24T01:58:54.545Z,-3.58
2019-01-24T01:59:54.535Z,-3.58
2019-01-24T02:00:54.523Z,-3.56
2019-01-24T02:01:54.513Z,-3.48
2019-01-24T02:02:54.525Z,-3.56
2019-01-24T02:03:54.496Z,-3.45
2019-01-24T02:04:54.485Z,-3.51
2019-01-24T02:05:54.469Z,-3.55
2019-01-24T02:06:54.465Z,-3.58
2019-01-24T02:07:54.466Z,-3.61
2019-01-24T02:08:54.437Z,-3.59
2019-01-24T02:09:54.437Z,-3.49
2019-01-24T02:10:54.419Z,-3.48
2019-01-24T02:11:54.407Z,-3.46
2019-01-24T02:12:54.413Z,-3.48
2019-01-24T02:13:54.393Z,-3.52
2019-01-24T02:14:54.372Z,-3.49
2019-01-24T02:15:54.384Z,-3.44
2019-01-24T02:16:54.356Z,-3.41
2019-01-24T02:17:54.344Z,-3.48
2019-01-24T02:18:54.346Z,-3.49
2019-01-24T02:19:54.320Z,-3.49
2019-01-24T02:20:54.312Z,-3.48
2019-01-24T02:21:54.312Z,-3.55
2019-01-24T02:22:54.289Z,-3.45
2019-01-24T02:23:54.292Z,-3.51
2019-01-24T02:24:54.288Z,-3.51
2019-01-24T02:25:54.262Z,-3.48
2019-01-24T02:26:54.244Z,-3.45
2019-01-24T02:27:54.240Z,-3.52
2019-01-24T02:28:54.224Z,-3.52
2019-01-24T02:29:54.215Z,-3.51
2019-01-24T02:30:54.230Z,-3.46
2019-01-24T02:31:54.193Z,-3.46
2019-01-24T02:32:54.183Z,-3.54
2019-01-24T02:33:54.185Z,-3.52
2019-01-24T02:34:54.183Z,-3.55
2019-01-24T02:35:54.152Z,-3.48
2019-01-24T02:36:54.160Z,-3.49
2019-01-24T02:37:54.127Z,-3.51
2019-01-24T02:38:54.117Z,-3.49
2019-01-24T02:39:54.111Z,-3.52
2019-01-24T02:40:54.117Z,-3.49
2019-01-24T02:41:54.086Z,-3.46
2019-01-24T02:42:54.088Z,-3.46
2019-01-24T02:43:54.071Z,-3.49
2019-01-24T02:44:54.056Z,-3.49
2019-01-24T02:45:54.041Z,-3.48
2019-01-24T02:46:54.078Z,-3.51
2019-01-24T02:47:54.032Z,-3.52
2019-01-24T02:48:54.022Z,-3.46
2019-01-24T02:49:54.005Z,-3.52
2019-01-24T02:50:53.999Z,-3.51
2019-01-24T02:51:53.978Z,-3.45
2019-01-24T02:52:53.977Z,-3.44
2019-01-24T02:53:53.974Z,-3.46
2019-01-24T02:54:53.966Z,-3.41
2019-01-24T02:55:53.936Z,-3.52
2019-01-24T02:56:53.937Z,-3.49
2019-01-24T02:57:53.917Z,-3.45
2019-01-24T02:58:53.919Z,-3.51
2019-01-24T02:59:53.895Z,-3.44
2019-01-24T03:00:53.901Z,-3.52
2019-01-24T03:01:53.874Z,-3.46
2019-01-24T03:02:53.908Z,-3.41
2019-01-24T03:03:53.853Z,-3.59
2019-01-24T03:04:57.053Z,-3.56
2019-01-24T03:05:53.830Z,-3.41
2019-01-24T03:06:53.821Z,-3.45
2019-01-24T03:07:53.895Z,-3.44
2019-01-24T03:08:53.821Z,-3.33
2019-01-24T03:09:53.796Z,-3.41
2019-01-24T03:10:53.799Z,-3.51
2019-01-24T03:11:53.769Z,-3.46
2019-01-24T03:12:53.758Z,-3.48
2019-01-24T03:13:53.747Z,-3.59
2019-01-24T03:14:53.746Z,-3.52
2019-01-24T03:15:53.726Z,-3.45
2019-01-24T03:16:53.754Z,-3.41
2019-01-24T03:17:53.705Z,-3.54
2019-01-24T03:18:53.697Z,-3.55
2019-01-24T03:19:53.703Z,-3.49
2019-01-24T03:20:53.672Z,-3.51
2019-01-24T03:21:53.662Z,-3.46
2019-01-24T03:22:53.656Z,-3.35
2019-01-24T03:23:53.649Z,-3.44
2019-01-24T03:24:53.636Z,-3.41
2019-01-24T03:25:53.633Z,-3.45
2019-01-24T03:26:53.612Z,-3.30
2019-01-24T03:27:53.600Z,-3.31
2019-01-24T03:28:53.586Z,-3.34
2019-01-24T03:29:53.603Z,-3.30
2019-01-24T03:30:53.572Z,-3.30
2019-01-24T03:31:53.566Z,-3.33
2019-01-24T03:32:53.544Z,-3.28
2019-01-24T03:33:53.549Z,-3.33
2019-01-24T03:34:53.522Z,-3.27
2019-01-24T03:35:53.512Z,-3.33
2019-01-24T03:36:53.522Z,-3.34
2019-01-24T03:37:53.494Z,-3.41
2019-01-24T03:38:53.479Z,-3.45
2019-01-24T03:39:53.481Z,-3.46
2019-01-24T03:40:53.480Z,-3.51
2019-01-24T03:41:53.449Z,-3.45
2019-01-24T03:42:53.462Z,-3.45
2019-01-24T03:43:53.431Z,-3.37
2019-01-24T03:44:53.421Z,-3.49
2019-01-24T03:45:53.414Z,-3.38
2019-01-24T03:46:53.412Z,-3.45
2019-01-24T03:47:53.387Z,-3.44
2019-01-24T03:48:53.382Z,-3.48
2019-01-24T03:49:53.366Z,-3.44
2019-01-24T03:50:53.353Z,-3.35
2019-01-24T03:51:53.344Z,-3.30
2019-01-24T03:52:53.348Z,-3.34
2019-01-24T03:53:53.321Z,-3.35
2019-01-24T03:54:53.360Z,-3.35
2019-01-24T03:55:53.300Z,-3.27
2019-01-24T03:56:53.291Z,-3.23
2019-01-24T03:57:53.280Z,-3.28
2019-01-24T03:58:53.289Z,-3.23
2019-01-24T03:59:53.257Z,-3.37
2019-01-24T04:00:53.267Z,-3.41
2019-01-24T04:01:53.264Z,-3.41
2019-01-24T04:02:53.226Z,-3.45
2019-01-24T04:03:53.221Z,-3.46
2019-01-24T04:04:53.206Z,-3.45
2019-01-24T04:05:53.194Z,-3.41
2019-01-24T04:06:53.231Z,-3.46
2019-01-24T04:07:53.187Z,-3.52
2019-01-24T04:08:53.163Z,-3.49
2019-01-24T04:09:53.152Z,-3.37
2019-01-24T04:10:53.163Z,-3.34
2019-01-24T04:11:53.134Z,-3.46
2019-01-24T04:12:53.147Z,-3.41
2019-01-24T04:13:53.113Z,-3.41
2019-01-24T04:14:53.098Z,-3.40
2019-01-24T04:15:53.089Z,-3.31
2019-01-24T04:16:53.093Z,-3.30
2019-01-24T04:17:53.069Z,-3.31
2019-01-24T04:18:53.074Z,-3.28
2019-01-24T04:19:53.045Z,-3.28
2019-01-24T04:20:53.040Z,-3.30
2019-01-24T04:21:53.035Z,-3.31
2019-01-24T04:22:53.037Z,-3.51
2019-01-24T04:23:53.005Z,-3.46
2019-01-24T04:24:53.003Z,-3.48
2019-01-24T04:25:52.985Z,-3.45
2019-01-24T04:26:52.974Z,-3.44
2019-01-24T04:27:52.961Z,-3.45
2019-01-24T04:28:52.967Z,-3.58
2019-01-24T04:29:52.946Z,-3.55
2019-01-24T04:30:52.942Z,-3.49
2019-01-24T04:31:52.922Z,-3.48
2019-01-24T04:32:52.944Z,-3.44
2019-01-24T04:33:52.898Z,-3.45
2019-01-24T04:34:52.899Z,-3.63
2019-01-24T04:35:52.874Z,-3.55
2019-01-24T04:36:52.882Z,-3.61
2019-01-24T04:37:52.864Z,-3.56
2019-01-24T04:38:52.849Z,-3.59
2019-01-24T04:39:52.837Z,-3.49
2019-01-24T04:40:52.836Z,-3.52
2019-01-24T04:41:52.812Z,-3.45
2019-01-24T04:42:52.857Z,-3.46
2019-01-24T04:43:52.790Z,-3.40
2019-01-24T04:44:52.784Z,-3.40
2019-01-24T04:45:52.778Z,-3.30
2019-01-24T04:46:52.765Z,-3.35
2019-01-24T04:47:52.749Z,-3.48
2019-01-24T04:48:52.754Z,-3.48
2019-01-24T04:49:52.730Z,-3.44
2019-01-24T04:50:52.716Z,-3.41
2019-01-24T04:51:52.706Z,-3.46
2019-01-24T04:52:52.701Z,-3.46
2019-01-24T04:53:52.687Z,-3.46
2019-01-24T04:54:52.707Z,-3.55
2019-01-24T04:55:52.664Z,-3.40
2019-01-24T04:56:52.656Z,-3.33
2019-01-24T04:57:52.641Z,-3.34
2019-01-24T04:58:52.632Z,-3.31
2019-01-24T04:59:52.622Z,-3.46
2019-01-24T05:00:52.660Z,-3.40
2019-01-24T05:01:52.599Z,-3.41
2019-01-24T05:02:52.588Z,-3.40
2019-01-24T05:03:52.577Z,-3.41
2019-01-24T05:04:52.568Z,-3.45
2019-01-24T05:05:52.569Z,-3.33
2019-01-24T05:06:52.556Z,-3.30
2019-01-24T05:07:52.538Z,-3.34
2019-01-24T05:08:52.523Z,-3.27
2019-01-24T05:09:52.515Z,-3.30
2019-01-24T05:10:52.526Z,-3.38
2019-01-24T05:11:52.493Z,-3.30
2019-01-24T05:12:52.495Z,-3.31
2019-01-24T05:13:52.488Z,-3.34
2019-01-24T05:14:52.462Z,-3.35
2019-01-24T05:15:52.453Z,-3.25
2019-01-24T05:16:52.458Z,-3.37
2019-01-24T05:17:52.437Z,-3.30
2019-01-24T05:18:52.424Z,-3.34
2019-01-24T05:19:52.414Z,-3.34
2019-01-24T05:20:52.423Z,-3.34
2019-01-24T05:21:52.389Z,-3.48
2019-01-24T05:22:52.396Z,-3.45
2019-01-24T05:23:52.367Z,-3.33
2019-01-24T05:24:52.356Z,-3.40
2019-01-24T05:25:52.345Z,-3.35
2019-01-24T05:26:52.365Z,-3.31
2019-01-24T05:27:52.381Z,-3.28
2019-01-24T05:28:52.313Z,-3.30
2019-01-24T05:29:52.305Z,-3.27
2019-01-24T05:30:52.297Z,-3.28
2019-01-24T05:31:52.282Z,-3.22
2019-01-24T05:32:52.271Z,-3.22
2019-01-24T05:33:52.277Z,-3.25
2019-01-24T05:34:52.253Z,-3.17
2019-01-24T05:35:52.245Z,-3.16
2019-01-24T05:36:52.247Z,-3.20
2019-01-24T05:37:52.226Z,-3.28
2019-01-24T05:38:52.214Z,-3.17
2019-01-24T05:39:52.235Z,-3.28
2019-01-24T05:40:52.207Z,-3.31
2019-01-24T05:41:52.208Z,-3.28
2019-01-24T05:42:52.186Z,-3.28
2019-01-24T05:43:53.583Z,-3.23
2019-01-24T05:44:52.153Z,-3.33
2019-01-24T05:45:52.155Z,-3.28
2019-01-24T05:46:52.142Z,-3.23
2019-01-24T05:47:52.133Z,-3.20
2019-01-24T05:48:52.124Z,-3.25
2019-01-24T05:49:52.150Z,-3.22
2019-01-24T05:50:52.098Z,-3.20
2019-01-24T05:51:52.103Z,-3.25
2019-01-24T05:52:52.061Z,-3.12
2019-01-24T05:53:52.085Z,-3.28
2019-01-24T05:54:52.041Z,-3.31
2019-01-24T05:55:52.030Z,-3.33
2019-01-24T05:56:52.034Z,-3.28
2019-01-24T05:57:52.042Z,-3.37
2019-01-24T05:58:52.001Z,-3.31
2019-01-24T05:59:51.987Z,-3.22
2019-01-24T06:00:51.986Z,-3.22
2019-01-24T06:01:52.000Z,-3.27
2019-01-24T06:02:51.953Z,-3.31
2019-01-24T06:03:51.944Z,-3.28
2019-01-24T06:04:51.935Z,-3.30
2019-01-24T06:05:51.933Z,-3.30
2019-01-24T06:06:51.917Z,-3.49
2019-01-24T06:07:51.922Z,-3.48
2019-01-24T06:08:51.907Z,-3.48
2019-01-24T06:09:51.882Z,-3.46
2019-01-24T06:10:51.870Z,-3.51
2019-01-24T06:11:51.862Z,-3.46
2019-01-24T06:12:51.851Z,-3.46
2019-01-24T06:13:51.864Z,-3.51
2019-01-24T06:14:51.849Z,-3.44
2019-01-24T06:15:51.816Z,-3.45
2019-01-24T06:16:51.806Z,-3.38
2019-01-24T06:17:51.808Z,-3.33
2019-01-24T06:18:51.786Z,-3.35
2019-01-24T06:19:51.790Z,-3.41
2019-01-24T06:20:51.767Z,-3.37
2019-01-24T06:21:51.754Z,-3.35
2019-01-24T06:22:51.741Z,-3.31
2019-01-24T06:23:51.750Z,-3.34
2019-01-24T06:24:51.722Z,-3.46
2019-01-24T06:25:51.712Z,-3.45
2019-01-24T06:26:51.726Z,-3.41
2019-01-24T06:27:51.721Z,-3.44
2019-01-24T06:28:51.713Z,-3.34
2019-01-24T06:29:51.673Z,-3.41
2019-01-24T06:30:51.657Z,-3.45
2019-01-24T06:31:51.645Z,-3.49
2019-01-24T06:32:51.633Z,-3.55
2019-01-24T06:33:51.645Z,-3.38
2019-01-24T06:34:51.619Z,-3.54
2019-01-24T06:35:51.609Z,-3.48
2019-01-24T06:36:51.592Z,-3.46
2019-01-24T06:37:51.621Z,-3.56
2019-01-24T06:38:51.584Z,-3.45
2019-01-24T06:39:51.601Z,-3.61
2019-01-24T06:40:59.136Z,-3.51
2019-01-24T06:41:51.543Z,-3.52
2019-01-24T06:42:51.576Z,-3.51
2019-01-24T06:43:51.518Z,-3.61
2019-01-24T06:44:51.511Z,-3.58
2019-01-24T06:45:51.520Z,-3.59
2019-01-24T06:46:51.497Z,-3.61
2019-01-24T06:47:51.487Z,-3.48
2019-01-24T06:48:51.486Z,-3.46
2019-01-24T06:49:51.456Z,-3.52
2019-01-24T06:50:51.471Z,-3.48
2019-01-24T06:51:51.456Z,-3.45
2019-01-24T06:52:51.440Z,-3.51
2019-01-24T06:53:51.412Z,-3.45
2019-01-24T06:54:51.404Z,-3.48
2019-01-24T06:55:51.396Z,-3.46
2019-01-24T06:56:51.408Z,-3.52
2019-01-24T06:57:51.368Z,-3.63
2019-01-24T06:58:51.360Z,-3.56
2019-01-24T06:59:51.357Z,-3.48
2019-01-24T07:00:51.353Z,-3.59
2019-01-24T07:01:51.326Z,-3.59
2019-01-24T07:02:51.359Z,-3.61
2019-01-24T07:03:51.323Z,-3.63
2019-01-24T07:04:51.293Z,-3.61
2019-01-24T07:05:55.350Z,-3.61
2019-01-24T07:06:51.273Z,-3.66
2019-01-24T07:07:51.278Z,-3.56
2019-01-24T07:08:51.284Z,-3.58
2019-01-24T07:09:51.249Z,-3.64
2019-01-24T07:10:51.243Z,-3.66
2019-01-24T07:11:51.233Z,-3.61
2019-01-24T07:12:51.210Z,-3.58
2019-01-24T07:13:51.196Z,-3.63
2019-01-24T07:14:51.203Z,-3.51
2019-01-24T07:15:51.203Z,-3.59
2019-01-24T07:16:51.167Z,-3.63
2019-01-24T07:17:51.206Z,-3.55
2019-01-24T07:18:51.144Z,-3.61
2019-01-24T07:19:51.162Z,-3.59
2019-01-24T07:20:51.124Z,-3.58
2019-01-24T07:21:51.156Z,-3.55
2019-01-24T07:22:51.154Z,-3.63
2019-01-24T07:23:51.108Z,-3.58
2019-01-24T07:24:51.082Z,-3.61
2019-01-24T07:25:51.080Z,-3.58
2019-01-24T07:26:51.085Z,-3.59
2019-01-24T07:27:51.094Z,-3.61
2019-01-24T07:28:51.037Z,-3.64
2019-01-24T07:29:51.034Z,-3.61
2019-01-24T07:30:51.021Z,-3.58
2019-01-24T07:31:51.035Z,-3.58
2019-01-24T07:32:51.006Z,-3.63
2019-01-24T07:33:51.008Z,-3.64
2019-01-24T07:34:51.027Z,-3.69
2019-01-24T07:35:50.962Z,-3.66
2019-01-24T07:36:50.961Z,-3.70
2019-01-24T07:37:50.953Z,-3.59
2019-01-24T07:38:50.957Z,-3.61
2019-01-24T07:39:50.992Z,-3.77
2019-01-24T07:40:50.911Z,-3.78
2019-01-24T07:41:50.897Z,-3.95
2019-01-24T07:42:50.914Z,-3.85
2019-01-24T07:43:50.884Z,-3.89
2019-01-24T07:44:50.866Z,-3.86
2019-01-24T07:45:50.901Z,-3.86
2019-01-24T07:46:50.846Z,-3.88
2019-01-24T07:47:50.859Z,-3.77
2019-01-24T07:48:50.827Z,-3.78
2019-01-24T07:49:50.813Z,-3.74
2019-01-24T07:50:50.805Z,-3.75
2019-01-24T07:51:50.815Z,-3.83
2019-01-24T07:52:50.782Z,-3.96
2019-01-24T07:53:50.796Z,-3.95
2019-01-24T07:54:50.767Z,-3.88
2019-01-24T07:55:50.751Z,-3.80
2019-01-24T07:56:50.739Z,-3.80
2019-01-24T07:57:50.743Z,-3.77
2019-01-24T07:58:50.782Z,-3.77
2019-01-24T07:59:50.754Z,-3.80
2019-01-24T08:00:50.697Z,-3.74
2019-01-24T08:01:50.696Z,-3.85
2019-01-24T08:02:50.686Z,-3.85
2019-01-24T08:03:50.663Z,-3.88
2019-01-24T08:04:50.657Z,-3.86
2019-01-24T08:05:50.724Z,-3.86
2019-01-24T08:06:50.644Z,-3.80
2019-01-24T08:07:50.651Z,-3.89
2019-01-24T08:08:50.643Z,-3.83
2019-01-24T08:09:50.633Z,-3.80
2019-01-24T08:10:50.602Z,-3.78
2019-01-24T08:11:50.638Z,-3.72
2019-01-24T08:12:50.569Z,-3.67
2019-01-24T08:13:50.575Z,-3.74
2019-01-24T08:14:50.582Z,-3.78
2019-01-24T08:15:50.567Z,-3.91
2019-01-24T08:16:50.527Z,-3.98
2019-01-24T08:17:50.516Z,-3.93
2019-01-24T08:18:50.505Z,-3.93
2019-01-24T08:19:50.527Z,-3.93
2019-01-24T08:20:50.511Z,-3.95
2019-01-24T08:21:50.513Z,-3.99
2019-01-24T08:22:50.462Z,-4.07
2019-01-24T08:23:50.452Z,-4.09
2019-01-24T08:24:50.467Z,-4.10
2019-01-24T08:25:50.450Z,-4.10
2019-01-24T08:26:50.419Z,-4.07
2019-01-24T08:27:50.430Z,-4.10
2019-01-24T08:28:50.413Z,-3.99
2019-01-24T08:29:50.390Z,-3.93
2019-01-24T08:30:50.383Z,-3.89
2019-01-24T08:31:50.383Z,-4.02
2019-01-24T08:32:50.359Z,-3.91
2019-01-24T08:33:50.347Z,-3.98
2019-01-24T08:34:50.356Z,-3.99
2019-01-24T08:35:50.322Z,-3.98
2019-01-24T08:36:50.335Z,-3.98
2019-01-24T08:37:50.301Z,-3.98
2019-01-24T08:38:50.289Z,-4.10
2019-01-24T08:39:50.298Z,-4.12
2019-01-24T08:40:50.280Z,-4.10
2019-01-24T08:41:50.270Z,-4.12
2019-01-24T08:42:50.309Z,-4.12
2019-01-24T08:43:50.239Z,-3.95
2019-01-24T08:44:50.228Z,-3.88
2019-01-24T08:45:50.215Z,-3.93
2019-01-24T08:46:50.204Z,-3.80
2019-01-24T08:47:50.197Z,-3.70
2019-01-24T08:48:50.210Z,-3.69
2019-01-24T08:49:50.186Z,-3.69
2019-01-24T08:50:50.167Z,-3.64
2019-01-24T08:51:50.154Z,-3.63
2019-01-24T08:52:50.167Z,-3.66
2019-01-24T08:53:50.143Z,-3.63
2019-01-24T08:54:50.139Z,-3.67
2019-01-24T08:55:50.144Z,-3.75
2019-01-24T08:56:50.101Z,-3.96
2019-01-24T08:57:50.088Z,-3.95
2019-01-24T08:58:50.095Z,-4.04
2019-01-24T08:59:50.066Z,-4.09
2019-01-24T09:00:50.091Z,-3.96
2019-01-24T09:01:50.052Z,-3.93
2019-01-24T09:02:50.063Z,-3.95
2019-01-24T09:03:50.025Z,-3.96
2019-01-24T09:04:50.020Z,-4.10
2019-01-24T09:05:50.017Z,-4.21
2019-01-24T09:06:50.009Z,-4.21
2019-01-24T09:07:49.984Z,-4.31
2019-01-24T09:08:49.998Z,-4.32
2019-01-24T09:09:49.960Z,-4.28
2019-01-24T09:10:49.952Z,-4.21
2019-01-24T09:11:49.979Z,-4.25
2019-01-24T09:12:49.931Z,-4.30
2019-01-24T09:13:49.917Z,-4.20
2019-01-24T09:14:49.918Z,-4.25
2019-01-24T09:15:49.899Z,-4.25
2019-01-24T09:16:49.893Z,-4.28
2019-01-24T09:17:49.888Z,-4.12
2019-01-24T09:18:49.862Z,-4.20
2019-01-24T09:19:49.855Z,-4.24
2019-01-24T09:20:49.851Z,-4.24
2019-01-24T09:21:49.854Z,-4.21
2019-01-24T09:22:55.119Z,-4.17
2019-01-24T09:23:50.825Z,-4.06
2019-01-24T09:24:49.802Z,-4.13
2019-01-24T09:25:49.788Z,-4.09
2019-01-24T09:26:49.778Z,-4.04
2019-01-24T09:27:49.816Z,-4.07
2019-01-24T09:28:49.777Z,-3.99
2019-01-24T09:29:49.772Z,-4.10
2019-01-24T09:30:49.756Z,-4.02
2019-01-24T09:31:49.728Z,-4.10
2019-01-24T09:32:49.716Z,-4.04
2019-01-24T09:33:49.710Z,-3.96
2019-01-24T09:34:49.706Z,-3.95
2019-01-24T09:35:49.732Z,-3.80
2019-01-24T09:36:49.679Z,-3.82
2019-01-24T09:37:49.680Z,-3.74
2019-01-24T09:38:49.666Z,-3.89
2019-01-24T09:39:49.666Z,-3.93
2019-01-24T09:40:49.627Z,-3.85
2019-01-24T09:41:49.628Z,-3.80
2019-01-24T09:42:49.607Z,-3.78
2019-01-24T09:43:49.597Z,-3.91
2019-01-24T09:44:49.587Z,-3.98
2019-01-24T09:45:49.597Z,-3.86
2019-01-24T09:46:49.599Z,-3.86
2019-01-24T09:47:49.557Z,-3.93
2019-01-24T09:48:49.542Z,-3.93
2019-01-24T09:49:49.532Z,-3.88
2019-01-24T09:50:49.522Z,-3.92
2019-01-24T09:51:49.536Z,-3.78
2019-01-24T09:52:49.521Z,-3.88
2019-01-24T09:53:49.509Z,-3.93
2019-01-24T09:54:49.485Z,-3.92
2019-01-24T09:55:49.482Z,-4.03
2019-01-24T09:56:49.457Z,-3.93
2019-01-24T09:57:49.486Z,-3.89
2019-01-24T09:58:49.468Z,-4.04
2019-01-24T09:59:49.426Z,-3.99
2019-01-24T10:00:49.419Z,-4.02
2019-01-24T10:01:49.406Z,-4.12
2019-01-24T10:02:49.556Z,-4.09
2019-01-24T10:03:49.407Z,-4.09
2019-01-24T10:04:49.394Z,-3.98
2019-01-24T10:05:49.360Z,-3.96
2019-01-24T10:06:50.624Z,-3.85
2019-01-24T10:07:49.339Z,-3.77
2019-01-24T10:08:49.331Z,-3.80
2019-01-24T10:09:49.329Z,-3.86
2019-01-24T10:10:49.317Z,-3.85
2019-01-24T10:11:49.296Z,-3.82
2019-01-24T10:12:49.286Z,-3.70
2019-01-24T10:13:49.280Z,-3.70
2019-01-24T10:14:49.263Z,-3.85
2019-01-24T10:15:49.280Z,-3.86
2019-01-24T10:16:49.257Z,-3.85
2019-01-24T10:17:49.234Z,-3.85
2019-01-24T10:18:49.221Z,-3.92
2019-01-24T10:19:49.239Z,-3.83
2019-01-24T10:20:49.199Z,-3.77
2019-01-24T10:21:49.206Z,-3.77
2019-01-24T10:22:49.192Z,-3.77
2019-01-24T10:23:49.170Z,-3.78
2019-01-24T10:24:49.158Z,-3.80
2019-01-24T10:25:49.169Z,-3.82
2019-01-24T10:26:49.136Z,-3.70
2019-01-24T10:27:49.171Z,-3.74
2019-01-24T10:28:49.122Z,-3.61
2019-01-24T10:29:49.104Z,-3.59
2019-01-24T10:30:49.097Z,-3.61
2019-01-24T10:31:49.084Z,-3.70
2019-01-24T10:32:49.085Z,-3.72
2019-01-24T10:33:49.098Z,-3.77
2019-01-24T10:34:49.054Z,-3.83
2019-01-24T10:35:49.042Z,-3.95
2019-01-24T10:36:49.033Z,-4.02
2019-01-24T10:37:49.052Z,-4.04
2019-01-24T10:38:49.008Z,-3.96
2019-01-24T10:39:49.023Z,-3.91
2019-01-24T10:40:49.002Z,-3.88
2019-01-24T10:41:48.980Z,-3.82
2019-01-24T10:42:48.996Z,-3.74
2019-01-24T10:43:48.955Z,-3.80
2019-01-24T10:44:48.943Z,-3.78
2019-01-24T10:45:48.951Z,-3.82
2019-01-24T10:46:48.938Z,-3.72
2019-01-24T10:47:48.914Z,-3.64
2019-01-24T10:48:48.903Z,-3.63
2019-01-24T10:49:48.892Z,-3.67
2019-01-24T10:50:48.900Z,-3.75
2019-01-24T10:51:48.938Z,-3.83
2019-01-24T10:52:48.862Z,-3.93
2019-01-24T10:53:48.847Z,-3.89
2019-01-24T10:54:48.838Z,-3.77
2019-01-24T10:55:48.826Z,-3.75
2019-01-24T10:56:48.827Z,-3.72
2019-01-24T10:57:48.814Z,-3.78
2019-01-24T10:58:48.810Z,-3.88
2019-01-24T10:59:48.783Z,-3.78
2019-01-24T11:00:48.788Z,-3.78
2019-01-24T11:01:48.763Z,-3.66
2019-01-24T11:02:57.380Z,-3.77
2019-01-24T11:03:56.304Z,-3.75
2019-01-24T11:04:48.735Z,-3.59
2019-01-24T11:05:48.727Z,-3.64
2019-01-24T11:06:56.307Z,-3.55
2019-01-24T11:07:56.290Z,-3.59
2019-01-24T11:08:57.483Z,-3.63
2019-01-24T11:09:48.702Z,-3.63
2019-01-24T11:10:48.695Z,-3.61
2019-01-24T11:11:48.666Z,-3.58
2019-01-24T11:12:48.657Z,-3.61
2019-01-24T11:13:48.657Z,-3.63
2019-01-24T11:14:48.678Z,-3.59
2019-01-24T11:15:48.659Z,-3.75
2019-01-24T11:16:48.627Z,-3.77
2019-01-24T11:17:48.657Z,-3.82
2019-01-24T11:18:48.606Z,-3.80
2019-01-24T11:19:48.573Z,-3.77
2019-01-24T11:20:48.627Z,-3.74
2019-01-24T11:21:48.548Z,-3.66
2019-01-24T11:22:48.541Z,-3.59
2019-01-24T11:23:48.536Z,-3.67
2019-01-24T11:24:48.542Z,-3.64
2019-01-24T11:25:48.507Z,-3.83
2019-01-24T11:26:48.520Z,-3.61
2019-01-24T11:27:48.485Z,-3.64
2019-01-24T11:28:48.475Z,-3.61
2019-01-24T11:29:48.472Z,-3.52
2019-01-24T11:30:48.462Z,-3.64
2019-01-24T11:31:48.462Z,-3.72
2019-01-24T11:32:48.446Z,-3.77
2019-01-24T11:33:48.463Z,-3.78
2019-01-24T11:34:48.425Z,-3.63
2019-01-24T11:35:48.445Z,-3.66
2019-01-24T11:36:48.448Z,-3.69
2019-01-24T11:37:48.412Z,-3.78
2019-01-24T11:38:48.395Z,-3.70
2019-01-24T11:39:48.378Z,-3.69
2019-01-24T11:40:48.361Z,-3.70
2019-01-24T11:41:48.338Z,-3.59
2019-01-24T11:42:48.378Z,-3.63
2019-01-24T11:43:48.370Z,-3.63
2019-01-24T11:44:48.360Z,-3.55
2019-01-24T11:45:48.327Z,-3.56
2019-01-24T11:46:48.292Z,-3.49
2019-01-24T11:47:48.278Z,-3.54
2019-01-24T11:48:48.269Z,-3.49
2019-01-24T11:49:48.269Z,-3.54
2019-01-24T11:50:48.263Z,-3.44
2019-01-24T11:51:48.256Z,-3.46
2019-01-24T11:52:48.221Z,-3.38
2019-01-24T11:53:53.064Z,-3.30
2019-01-24T11:54:49.204Z,-3.30
2019-01-24T11:55:48.242Z,-3.34
2019-01-24T11:56:48.201Z,-3.34
2019-01-24T11:57:48.174Z,-3.48
2019-01-24T11:58:48.166Z,-3.38
2019-01-24T11:59:48.167Z,-3.48
2019-01-24T12:00:48.135Z,-3.48
2019-01-24T12:01:48.142Z,-3.44
2019-01-24T12:02:48.119Z,-3.41
2019-01-24T12:03:48.115Z,-3.41
2019-01-24T12:04:48.095Z,-3.40
2019-01-24T12:05:48.097Z,-3.41
2019-01-24T12:06:48.088Z,-3.35
2019-01-24T12:07:48.101Z,-3.45
2019-01-24T12:08:48.051Z,-3.40
2019-01-24T12:09:48.050Z,-3.58
2019-01-24T12:10:48.052Z,-3.63
2019-01-24T12:11:48.044Z,-3.59
2019-01-24T12:12:48.023Z,-3.56
2019-01-24T12:13:48.009Z,-3.58
2019-01-24T12:14:47.999Z,-3.59
2019-01-24T12:15:47.985Z,-3.61
2019-01-24T12:16:47.970Z,-3.59
2019-01-24T12:17:48.003Z,-3.63
2019-01-24T12:18:47.993Z,-3.59
2019-01-24T12:19:47.985Z,-3.44
2019-01-24T12:20:47.945Z,-3.44
2019-01-24T12:21:47.936Z,-3.49
2019-01-24T12:22:47.899Z,-3.46
2019-01-24T12:23:47.914Z,-3.44
2019-01-24T12:24:47.880Z,-3.38
2019-01-24T12:25:47.884Z,-3.35
2019-01-24T12:26:47.861Z,-3.35
2019-01-24T12:27:47.851Z,-3.17
2019-01-24T12:28:47.850Z,-3.09
2019-01-24T12:29:47.854Z,-3.07
2019-01-24T12:30:47.872Z,-3.10
2019-01-24T12:31:47.870Z,-3.16
2019-01-24T12:32:47.856Z,-3.13
2019-01-24T12:33:47.796Z,-3.12
2019-01-24T12:34:47.796Z,-3.20
2019-01-24T12:35:47.804Z,-3.27
2019-01-24T12:36:47.800Z,-3.22
2019-01-24T12:37:47.741Z,-3.19
2019-01-24T12:38:47.730Z,-3.28
2019-01-24T12:39:47.732Z,-3.20
2019-01-24T12:40:56.450Z,-3.22
2019-01-24T12:43:01.493Z,-3.30
2019-01-24T12:44:01.526Z,-3.45
2019-01-24T12:45:09.079Z,-3.40
2019-01-24T12:46:10.048Z,-3.48
2019-01-24T12:47:01.470Z,-3.38
2019-01-24T12:48:09.004Z,-3.41
2019-01-24T12:49:08.968Z,-3.37
2019-01-24T12:50:01.515Z,-3.34
2019-01-24T12:51:08.951Z,-3.40
2019-01-24T12:52:01.426Z,-3.34
2019-01-24T12:53:10.128Z,-3.31
2019-01-24T12:54:08.908Z,-3.28
2019-01-24T12:55:08.899Z,-3.37